Time;durP1;ratioP1;P1;durP2;ratioP2;P2;SDS_P1;SDS_P2;PMS_P1;PMS_P2;Temp;Humidity;BMP_temperature;BMP_pressure;BME280_temperature;BME280_humidity;BME280_pressure;Samples;Min_cycle;Max_cycle;Signal;HPM_P1;HPM_P2
2021/07/26 00:00:47;;;;;;;32.90;29.40;;;20.90;99.90;;;;;;5075869;28;20443;-85
2021/07/26 00:03:14;;;;;;;31.73;28.73;;;20.90;99.90;;;;;;5075530;28;20534;-86
2021/07/26 00:05:41;;;;;;;34.40;29.93;;;20.90;99.90;;;;;;5075337;28;20534;-86
2021/07/26 00:08:08;;;;;;;35.67;31.87;;;20.90;99.90;;;;;;5075252;28;20873;-86
2021/07/26 00:10:35;;;;;;;33.10;29.80;;;20.90;99.90;;;;;;5075420;28;20546;-86
2021/07/26 00:13:03;;;;;;;33.20;30.10;;;21.00;99.90;;;;;;5091599;28;20446;-86
2021/07/26 00:15:30;;;;;;;32.93;29.70;;;21.00;99.90;;;;;;5095621;28;20478;-86
2021/07/26 00:17:56;;;;;;;31.83;28.80;;;21.00;99.90;;;;;;5095564;28;20481;-86
2021/07/26 00:20:23;;;;;;;32.03;28.83;;;21.00;99.90;;;;;;5095446;28;20450;-86
2021/07/26 00:22:52;;;;;;;33.87;30.50;;;21.00;99.90;;;;;;5095547;28;20778;-86
2021/07/26 00:25:21;;;;;;;30.60;27.73;;;21.00;99.90;;;;;;5095597;28;20443;-86
2021/07/26 00:27:48;;;;;;;32.23;29.13;;;21.00;99.90;;;;;;5095487;28;20442;-86
2021/07/26 00:30:15;;;;;;;32.80;29.80;;;21.00;99.90;;;;;;5095013;28;20835;-86
2021/07/26 00:32:41;;;;;;;30.97;28.07;;;21.00;99.90;;;;;;5095374;28;20479;-85
2021/07/26 00:35:08;;;;;;;30.23;27.40;;;21.00;99.90;;;;;;5095055;28;20542;-86
2021/07/26 00:37:34;;;;;;;32.70;29.30;;;21.00;99.90;;;;;;5095100;28;20455;-86
2021/07/26 00:40:08;;;;;;;29.57;26.90;;;21.10;99.90;;;;;;5095151;28;20809;-86
2021/07/26 00:42:36;;;;;;;33.00;29.80;;;21.10;99.90;;;;;;5095075;28;20520;-86
2021/07/26 00:45:02;;;;;;;32.20;29.00;;;21.10;99.90;;;;;;5094103;28;20478;-86
2021/07/26 00:47:29;;;;;;;31.23;28.23;;;21.10;99.90;;;;;;5094729;28;20537;-86
2021/07/26 00:49:56;;;;;;;32.20;28.90;;;21.10;99.90;;;;;;5094459;28;20521;-86
2021/07/26 00:52:23;;;;;;;34.83;31.30;;;21.00;99.90;;;;;;5094797;28;21004;-86
2021/07/26 00:54:50;;;;;;;31.73;28.43;;;21.00;99.90;;;;;;5094717;28;20545;-86
2021/07/26 00:57:20;;;;;;;33.10;29.80;;;21.00;99.90;;;;;;5094483;28;21056;-86
2021/07/26 00:59:47;;;;;;;32.93;29.70;;;21.00;99.90;;;;;;5094393;28;20481;-86
2021/07/26 01:02:14;;;;;;;33.43;30.07;;;21.00;99.90;;;;;;5094373;28;20482;-86
2021/07/26 01:04:40;;;;;;;34.90;31.60;;;21.00;99.90;;;;;;5094214;28;20545;-86
2021/07/26 01:07:07;;;;;;;33.20;29.80;;;21.00;99.90;;;;;;5094356;28;20546;-86
2021/07/26 01:09:34;;;;;;;37.33;32.37;;;20.90;99.90;;;;;;5094214;28;20898;-86
2021/07/26 01:12:01;;;;;;;35.57;31.87;;;20.90;99.90;;;;;;5086624;28;20588;-86
2021/07/26 01:14:33;;;;;;;34.17;30.67;;;20.90;99.90;;;;;;5073975;28;20542;-86
2021/07/26 01:16:59;;;;;;;32.43;29.03;;;20.90;99.90;;;;;;5073841;28;20448;-86
2021/07/26 01:19:26;;;;;;;32.53;29.60;;;20.90;99.90;;;;;;5073563;28;20443;-86
2021/07/26 01:21:54;;;;;;;31.40;28.30;;;20.90;99.90;;;;;;5073880;28;20493;-86
2021/07/26 01:24:21;;;;;;;31.70;28.87;;;20.90;99.90;;;;;;5073722;28;20858;-86
2021/07/26 01:26:48;;;;;;;33.33;30.00;;;20.90;99.90;;;;;;5073733;28;20853;-86
2021/07/26 01:29:15;;;;;;;32.40;29.30;;;20.90;99.90;;;;;;5073666;28;20486;-86
2021/07/26 01:31:42;;;;;;;31.73;28.73;;;20.90;99.90;;;;;;5073484;28;20543;-86
2021/07/26 01:34:08;;;;;;;31.33;28.13;;;20.90;99.90;;;;;;5073655;28;20543;-86
2021/07/26 01:36:35;;;;;;;33.23;30.20;;;20.90;99.90;;;;;;5073574;28;20455;-86
2021/07/26 01:39:03;;;;;;;33.37;30.17;;;20.90;99.90;;;;;;5073530;28;20477;-86
2021/07/26 01:41:35;;;;;;;29.70;26.90;;;20.90;99.90;;;;;;5073476;28;20537;-86
2021/07/26 01:44:02;;;;;;;32.40;29.20;;;20.90;99.90;;;;;;5073332;28;20481;-85
2021/07/26 01:46:36;;;;;;;32.97;29.77;;;20.90;99.90;;;;;;5073360;28;20534;-86
2021/07/26 01:49:21;;;;;;;31.57;28.57;;;20.90;99.90;;;;;;5073389;28;20494;-86
2021/07/26 01:51:48;;;;;;;32.37;29.50;;;20.90;99.90;;;;;;5073426;28;20531;-86
2021/07/26 01:54:16;;;;;;;31.30;28.20;;;21.00;99.90;;;;;;5073357;28;20447;-86
2021/07/26 01:56:43;;;;;;;32.37;29.37;;;21.00;99.90;;;;;;5072084;28;20998;-86
2021/07/26 01:59:11;;;;;;;34.20;30.60;;;20.90;99.90;;;;;;5073379;28;20550;-86
2021/07/26 02:01:37;;;;;;;33.30;30.20;;;20.90;99.90;;;;;;5073164;28;21013;-86
2021/07/26 02:04:04;;;;;;;32.47;29.27;;;20.90;99.90;;;;;;5073177;28;20515;-86
2021/07/26 02:06:30;;;;;;;31.23;28.37;;;20.90;99.90;;;;;;5073184;28;20443;-86
2021/07/26 02:08:57;;;;;;;31.30;28.30;;;20.90;99.90;;;;;;5072898;28;20471;-86
2021/07/26 02:11:25;;;;;;;32.63;29.50;;;20.90;99.90;;;;;;5075622;28;20534;-86
2021/07/26 02:13:52;;;;;;;32.80;29.57;;;20.90;99.90;;;;;;5093268;28;20480;-86
2021/07/26 02:16:20;;;;;;;31.90;28.77;;;20.90;99.90;;;;;;5093188;28;20529;-86
2021/07/26 02:18:47;;;;;;;33.40;30.17;;;20.90;99.90;;;;;;5093220;28;20454;-86
2021/07/26 02:21:13;;;;;;;34.13;30.60;;;20.90;99.90;;;;;;5093231;28;20997;-85
2021/07/26 02:23:42;;;;;;;31.83;28.87;;;20.90;99.90;;;;;;5093155;28;20540;-86
2021/07/26 02:26:08;;;;;;;34.07;30.97;;;20.90;99.90;;;;;;5093080;28;20508;-86
2021/07/26 02:28:36;;;;;;;31.63;28.60;;;20.90;99.90;;;;;;5093044;28;20522;-86
2021/07/26 02:31:03;;;;;;;33.80;30.70;;;20.90;99.90;;;;;;5093010;28;20537;-86
2021/07/26 02:33:29;;;;;;;32.93;29.93;;;20.90;99.90;;;;;;5078173;28;20535;-86
2021/07/26 02:35:56;;;;;;;30.70;27.73;;;20.90;99.90;;;;;;5072741;28;20536;-86
2021/07/26 02:38:22;;;;;;;33.93;30.73;;;20.90;99.90;;;;;;5072509;28;20493;-86
2021/07/26 02:40:49;;;;;;;33.27;29.70;;;20.90;99.90;;;;;;5072873;28;21022;-86
2021/07/26 02:43:15;;;;;;;31.67;28.70;;;20.90;99.90;;;;;;5072708;28;20538;-86
2021/07/26 02:45:43;;;;;;;32.30;29.13;;;20.90;99.90;;;;;;5072758;28;20803;-86
2021/07/26 02:48:10;;;;;;;34.07;30.97;;;20.90;99.90;;;;;;5072591;28;20854;-86
2021/07/26 02:50:37;;;;;;;34.67;31.10;;;20.90;99.90;;;;;;5072490;28;20483;-86
2021/07/26 02:53:04;;;;;;;34.43;30.90;;;20.90;99.90;;;;;;5072436;28;20859;-86
2021/07/26 02:55:30;;;;;;;33.27;30.10;;;20.90;99.90;;;;;;5072422;28;20451;-86
2021/07/26 02:57:57;;;;;;;31.03;28.13;;;20.90;99.90;;;;;;5072548;28;20538;-86
2021/07/26 03:00:24;;;;;;;32.97;29.73;;;20.90;99.90;;;;;;5072573;28;20540;-86
2021/07/26 03:02:52;;;;;;;33.40;30.20;;;21.00;99.90;;;;;;5072428;28;20542;-86
2021/07/26 03:05:19;;;;;;;31.50;28.40;;;20.90;99.90;;;;;;5072353;28;20788;-86
2021/07/26 03:07:46;;;;;;;32.60;29.63;;;21.00;99.90;;;;;;5073490;28;20485;-86
2021/07/26 03:10:12;;;;;;;33.30;30.10;;;20.90;99.90;;;;;;5076199;28;20573;-86
2021/07/26 03:12:39;;;;;;;31.47;28.63;;;20.90;99.90;;;;;;5089355;28;20576;-86
2021/07/26 03:15:08;;;;;;;33.33;30.03;;;20.90;99.90;;;;;;5096594;28;20888;-86
2021/07/26 03:17:34;;;;;;;33.70;30.30;;;20.90;99.90;;;;;;5096615;28;20501;-86
2021/07/26 03:20:02;;;;;;;32.63;29.67;;;20.90;99.90;;;;;;5096236;28;20474;-86
2021/07/26 03:22:51;;;;;;;32.87;29.77;;;20.90;99.90;;;;;;5096457;28;20446;-86
2021/07/26 03:25:18;;;;;;;33.23;30.13;;;20.90;99.90;;;;;;5096338;28;20534;-86
2021/07/26 03:27:45;;;;;;;33.40;30.20;;;20.90;99.90;;;;;;5096533;28;20570;-86
2021/07/26 03:30:13;;;;;;;32.43;29.50;;;20.90;99.90;;;;;;5096182;28;20519;-86
2021/07/26 03:32:39;;;;;;;34.03;31.03;;;20.90;99.90;;;;;;5096260;28;20477;-86
2021/07/26 03:35:08;;;;;;;34.13;31.07;;;20.90;99.90;;;;;;5096172;28;20478;-86
2021/07/26 03:37:35;;;;;;;32.70;29.80;;;20.90;99.90;;;;;;5095894;28;20933;-86
2021/07/26 03:40:02;;;;;;;34.57;31.13;;;20.90;99.90;;;;;;5095948;28;20542;-86
2021/07/26 03:42:28;;;;;;;32.13;29.13;;;20.80;99.90;;;;;;5095891;28;21011;-86
2021/07/26 03:44:55;;;;;;;34.07;31.07;;;20.90;99.90;;;;;;5095740;28;20490;-86
2021/07/26 03:47:24;;;;;;;36.27;33.00;;;20.90;99.90;;;;;;5095776;28;20929;-86
2021/07/26 03:49:50;;;;;;;34.47;31.30;;;20.80;99.90;;;;;;5095776;28;20984;-86
2021/07/26 03:52:18;;;;;;;32.60;29.57;;;20.80;99.90;;;;;;5095937;28;20546;-86
2021/07/26 03:54:45;;;;;;;33.40;30.40;;;20.80;99.90;;;;;;5095692;28;20489;-85
2021/07/26 03:57:11;;;;;;;35.10;31.47;;;20.80;99.90;;;;;;5095612;28;20509;-85
2021/07/26 03:59:38;;;;;;;33.33;30.13;;;20.70;99.90;;;;;;5095469;28;21005;-86
2021/07/26 04:02:05;;;;;;;34.47;31.30;;;20.70;99.90;;;;;;5095735;28;20533;-86
2021/07/26 04:04:32;;;;;;;36.20;32.80;;;20.70;99.90;;;;;;5095622;28;20474;-86
2021/07/26 04:06:59;;;;;;;34.63;31.40;;;20.70;99.90;;;;;;5095663;28;20450;-86
2021/07/26 04:09:31;;;;;;;35.63;32.10;;;20.70;99.90;;;;;;5095328;28;20513;-86
2021/07/26 04:12:01;;;;;;;34.13;31.03;;;20.80;99.90;;;;;;5088231;28;20447;-86
2021/07/26 04:14:30;;;;;;;36.67;33.13;;;20.80;99.90;;;;;;5074969;28;20451;-86
2021/07/26 04:16:56;;;;;;;34.30;31.17;;;20.80;99.90;;;;;;5075213;28;20447;-86
2021/07/26 04:19:23;;;;;;;35.00;31.70;;;20.80;99.90;;;;;;5074076;28;20448;-86
2021/07/26 04:21:49;;;;;;;33.70;30.60;;;20.90;99.90;;;;;;5075060;28;20542;-86
2021/07/26 04:24:16;;;;;;;33.43;30.50;;;20.90;99.90;;;;;;5074861;28;20493;-86
2021/07/26 04:26:44;;;;;;;32.97;30.00;;;21.00;99.90;;;;;;5074818;28;20475;-86
2021/07/26 04:29:10;;;;;;;33.43;30.47;;;21.00;99.90;;;;;;5074914;28;20463;-87
2021/07/26 04:31:37;;;;;;;35.90;32.60;;;21.10;99.90;;;;;;5074873;28;20514;-86
2021/07/26 04:34:03;;;;;;;33.20;29.97;;;21.20;99.90;;;;;;5074743;28;20479;-86
2021/07/26 04:36:30;;;;;;;32.73;29.80;;;21.20;99.90;;;;;;5074571;28;21001;-86
2021/07/26 04:38:56;;;;;;;30.77;28.07;;;21.30;99.90;;;;;;5074517;28;20530;-87
2021/07/26 04:41:23;;;;;;;32.87;30.07;;;21.40;99.90;;;;;;5074410;28;20903;-86
2021/07/26 04:43:51;;;;;;;30.80;28.10;;;21.50;99.90;;;;;;5074635;28;20479;-86
2021/07/26 04:46:17;;;;;;;32.27;29.33;;;21.50;99.90;;;;;;5074596;28;20885;-87
2021/07/26 04:48:44;;;;;;;33.90;30.70;;;21.60;99.90;;;;;;5074638;28;20542;-86
2021/07/26 04:51:10;;;;;;;31.83;28.93;;;21.60;99.90;;;;;;5074413;28;20572;-86
2021/07/26 04:53:37;;;;;;;29.50;26.70;;;21.60;99.90;;;;;;5074249;28;20547;-87
2021/07/26 04:56:04;;;;;;;32.93;30.00;;;21.60;99.90;;;;;;5074134;28;20558;-86
2021/07/26 04:58:30;;;;;;;30.17;27.57;;;21.60;99.90;;;;;;5074332;28;20456;-87
2021/07/26 05:00:58;;;;;;;33.33;30.37;;;21.70;99.90;;;;;;5074358;28;20454;-87
2021/07/26 05:03:25;;;;;;;31.53;28.73;;;21.70;99.90;;;;;;5074435;28;20475;-87
2021/07/26 05:05:51;;;;;;;33.00;29.73;;;21.80;99.90;;;;;;5074153;28;21033;-87
2021/07/26 05:08:18;;;;;;;31.37;28.60;;;21.90;99.90;;;;;;5073962;28;20538;-86
2021/07/26 05:10:48;;;;;;;29.67;26.97;;;22.10;99.90;;;;;;5073824;28;20482;-87
2021/07/26 05:13:14;;;;;;;27.60;25.10;;;22.30;99.90;;;;;;5091996;28;20530;-87
2021/07/26 05:15:41;;;;;;;27.40;24.80;;;22.50;99.90;;;;;;5094245;28;20961;-86
2021/07/26 05:18:13;;;;;;;27.97;25.67;;;22.70;99.90;;;;;;5094128;28;20538;-87
2021/07/26 05:20:42;;;;;;;29.73;27.03;;;22.90;99.90;;;;;;5094013;28;20454;-87
2021/07/26 05:23:09;;;;;;;31.03;28.00;;;23.00;99.90;;;;;;5093984;28;20442;-87
2021/07/26 05:25:36;;;;;;;29.90;27.30;;;23.20;99.90;;;;;;5094250;28;20446;-86
2021/07/26 05:28:03;;;;;;;31.00;28.10;;;23.30;99.90;;;;;;5094072;28;20533;-87
2021/07/26 05:30:31;;;;;;;27.97;25.43;;;23.50;99.90;;;;;;5093701;28;20557;-87
2021/07/26 05:32:58;;;;;;;26.97;24.63;;;23.70;99.90;;;;;;5093818;28;20940;-87
2021/07/26 05:35:25;;;;;;;27.87;25.40;;;23.80;99.90;;;;;;5093845;28;20489;-87
2021/07/26 05:37:52;;;;;;;28.33;25.53;;;24.00;99.90;;;;;;5093865;28;20500;-88
2021/07/26 05:40:19;;;;;;;28.70;26.20;;;24.10;99.90;;;;;;5093932;28;20549;-88
2021/07/26 05:42:45;;;;;;;28.50;25.97;;;24.20;99.90;;;;;;5093909;28;20485;-87
2021/07/26 05:45:12;;;;;;;26.63;24.43;;;24.20;99.90;;;;;;5093993;28;20541;-87
2021/07/26 05:47:39;;;;;;;25.30;23.13;;;24.30;99.90;;;;;;5093630;28;20489;-87
2021/07/26 05:50:06;;;;;;;26.30;24.10;;;24.30;99.90;;;;;;5093329;28;20505;-88
2021/07/26 05:52:34;;;;;;;27.63;24.90;;;24.30;99.90;;;;;;5093661;28;20533;-87
2021/07/26 05:55:02;;;;;;;26.30;24.10;;;24.30;99.90;;;;;;5093616;28;20541;-87
2021/07/26 05:57:32;;;;;;;26.13;23.83;;;24.30;99.90;;;;;;5093367;28;20492;-87
2021/07/26 05:59:59;;;;;;;27.10;24.80;;;24.30;99.90;;;;;;5093402;28;20538;-87
2021/07/26 06:02:25;;;;;;;25.47;23.10;;;24.40;99.90;;;;;;5093393;28;20474;-87
2021/07/26 06:04:52;;;;;;;27.50;25.00;;;24.50;99.90;;;;;;5093401;28;20454;-87
2021/07/26 06:07:18;;;;;;;26.37;24.03;;;24.50;99.90;;;;;;5093530;28;20537;-87
2021/07/26 06:09:46;;;;;;;25.70;23.13;;;24.60;99.90;;;;;;5093588;28;20474;-87
2021/07/26 06:12:13;;;;;;;27.00;24.60;;;24.70;99.90;;;;;;5083890;28;20443;-87
2021/07/26 06:14:39;;;;;;;23.83;21.67;;;24.90;99.90;;;;;;5073199;28;20455;-87
2021/07/26 06:17:07;;;;;;;24.17;22.10;;;25.10;99.90;;;;;;5072944;28;20490;-87
2021/07/26 06:19:34;;;;;;;24.47;22.37;;;25.30;99.90;;;;;;5073070;28;20452;-87
2021/07/26 06:22:03;;;;;;;25.30;22.90;;;25.60;99.90;;;;;;5072792;28;20466;-87
2021/07/26 06:24:29;;;;;;;23.70;21.40;;;25.80;99.90;;;;;;5072931;28;20501;-87
2021/07/26 06:27:00;;;;;;;23.00;20.90;;;26.20;99.90;;;;;;5073042;28;20483;-87
2021/07/26 06:29:27;;;;;;;23.00;20.97;;;26.50;99.90;;;;;;5072855;28;20451;-87
2021/07/26 06:31:57;;;;;;;20.67;18.67;;;26.70;99.90;;;;;;5072575;28;20996;-87
2021/07/26 06:34:23;;;;;;;21.53;19.63;;;27.00;99.90;;;;;;5073034;28;20452;-87
2021/07/26 06:36:50;;;;;;;18.30;16.70;;;27.40;99.90;;;;;;5072846;28;20487;-87
2021/07/26 06:39:17;;;;;;;19.90;18.20;;;27.70;99.90;;;;;;5072851;28;20479;-87
2021/07/26 06:41:43;;;;;;;20.10;18.37;;;28.00;99.90;;;;;;5072831;28;20447;-87
2021/07/26 06:44:11;;;;;;;20.83;18.80;;;28.20;99.90;;;;;;5076001;28;20462;-87
2021/07/26 06:46:39;;;;;;;19.67;17.97;;;28.40;99.90;;;;;;5076961;28;20505;-87
2021/07/26 06:49:06;;;;;;;18.43;16.93;;;28.60;99.90;;;;;;5076904;28;20502;-87
2021/07/26 06:51:32;;;;;;;19.90;18.20;;;28.90;99.90;;;;;;5076597;28;20522;-88
2021/07/26 06:53:59;;;;;;;19.50;17.77;;;29.50;99.90;;;;;;5076766;28;20920;-88
2021/07/26 06:56:26;;;;;;;16.63;15.23;;;29.90;99.90;;;;;;5076666;28;20525;-88
2021/07/26 06:58:52;;;;;;;18.00;16.57;;;30.30;99.90;;;;;;5076522;28;20546;-88
2021/07/26 07:01:20;;;;;;;19.60;17.90;;;30.70;99.90;;;;;;5076831;28;20452;-90
2021/07/26 07:03:49;;;;;;;19.40;17.73;;;30.90;99.90;;;;;;5076716;28;20485;-88
2021/07/26 07:06:17;;;;;;;17.97;16.27;;;31.10;99.90;;;;;;5076535;28;20443;-89
2021/07/26 07:08:45;;;;;;;18.40;16.90;;;31.20;99.90;;;;;;5076463;28;20490;-89
2021/07/26 07:11:13;;;;;;;18.17;16.60;;;31.20;99.90;;;;;;5076874;28;20888;-88
2021/07/26 07:13:43;;;;;;;16.77;15.37;;;31.10;99.90;;;;;;5096988;28;20446;-88
2021/07/26 07:16:10;;;;;;;18.13;16.73;;;30.80;99.90;;;;;;5096858;28;20552;-89
2021/07/26 07:18:39;;;;;;;18.97;17.47;;;30.70;99.90;;;;;;5096727;28;20934;-89
2021/07/26 07:21:06;;;;;;;21.80;19.90;;;31.00;99.90;;;;;;5096561;28;20450;-88
2021/07/26 07:23:32;;;;;;;18.60;17.00;;;31.30;99.90;;;;;;5096672;28;20567;-89
2021/07/26 07:26:00;;;;;;;19.40;17.80;;;31.50;99.90;;;;;;5096607;28;20955;-89
2021/07/26 07:28:27;;;;;;;19.20;17.50;;;31.70;99.90;;;;;;5096823;28;20453;-88
2021/07/26 07:30:53;;;;;;;18.30;16.50;;;31.50;99.90;;;;;;5096514;28;20513;-89
2021/07/26 07:33:20;;;;;;;19.53;18.03;;;31.30;99.90;;;;;;5096501;28;20968;-88
2021/07/26 07:35:48;;;;;;;19.67;18.07;;;31.40;99.90;;;;;;5096617;28;20965;-88
2021/07/26 07:38:15;;;;;;;20.40;18.63;;;31.30;99.90;;;;;;5096183;28;20492;-89
2021/07/26 07:40:41;;;;;;;22.20;20.17;;;31.10;99.90;;;;;;5096203;28;20455;-89
2021/07/26 07:43:08;;;;;;;19.80;18.20;;;30.90;99.90;;;;;;5096265;28;20539;-89
2021/07/26 07:45:34;;;;;;;20.10;18.40;;;30.80;99.90;;;;;;5096303;28;20537;-89
2021/07/26 07:48:01;;;;;;;19.80;18.20;;;30.80;99.90;;;;;;5096101;28;20446;-89
2021/07/26 07:50:28;;;;;;;20.30;18.47;;;30.90;99.90;;;;;;5096100;28;20457;-89
2021/07/26 07:52:57;;;;;;;20.07;18.47;;;30.90;99.90;;;;;;5095983;28;20454;-89
2021/07/26 07:55:24;;;;;;;20.33;18.77;;;30.80;99.90;;;;;;5094617;28;20546;-89
2021/07/26 07:57:52;;;;;;;20.50;18.60;;;30.70;99.90;;;;;;5095909;28;20460;-88
2021/07/26 08:00:20;;;;;;;20.03;18.53;;;30.50;99.90;;;;;;5095822;28;20446;-89
2021/07/26 08:02:47;;;;;;;22.17;20.13;;;30.40;99.90;;;;;;5095663;28;20847;-88
2021/07/26 08:05:14;;;;;;;22.57;20.67;;;30.30;99.90;;;;;;5095780;28;20447;-88
2021/07/26 08:07:41;;;;;;;21.50;19.80;;;30.30;99.90;;;;;;5095448;28;20498;-88
2021/07/26 08:10:10;;;;;;;24.13;22.03;;;30.20;99.90;;;;;;5095675;28;20447;-88
2021/07/26 08:12:37;;;;;;;21.87;19.90;;;30.20;99.90;;;;;;5082797;28;20475;-88
2021/07/26 08:15:04;;;;;;;23.63;21.67;;;30.20;99.90;;;;;;5075289;28;20447;-88
2021/07/26 08:17:31;;;;;;;22.83;20.93;;;30.20;99.90;;;;;;5075179;28;20483;-88
2021/07/26 08:19:57;;;;;;;20.20;18.63;;;30.10;99.90;;;;;;5075015;28;20451;-88
2021/07/26 08:22:24;;;;;;;19.33;17.87;;;30.00;99.90;;;;;;5074940;28;20577;-88
2021/07/26 08:24:51;;;;;;;22.03;19.97;;;30.00;99.90;;;;;;5075270;28;20447;-88
2021/07/26 08:27:18;;;;;;;20.93;19.27;;;30.00;99.90;;;;;;5075055;28;20483;-88
2021/07/26 08:30:00;;;;;;;22.40;20.47;;;30.10;99.90;;;;;;5075023;28;20950;-89
2021/07/26 08:32:27;;;;;;;21.07;19.20;;;30.20;99.90;;;;;;5074795;28;20493;-89
2021/07/26 08:34:54;;;;;;;22.40;20.43;;;30.30;99.90;;;;;;5075235;28;20448;-89
2021/07/26 08:37:29;;;;;;;21.50;19.70;;;30.40;99.90;;;;;;5074707;28;20730;-88
2021/07/26 08:39:56;;;;;;;20.63;18.73;;;30.40;99.90;;;;;;5074809;28;20454;-88
2021/07/26 08:42:24;;;;;;;21.73;19.93;;;30.50;99.90;;;;;;5074664;28;20447;-89
2021/07/26 08:44:50;;;;;;;25.30;23.07;;;30.40;99.90;;;;;;5074627;28;20447;-89
2021/07/26 08:47:19;;;;;;;23.93;21.73;;;30.40;99.90;;;;;;5074414;28;20469;-89
2021/07/26 08:49:47;;;;;;;21.90;19.97;;;30.30;99.90;;;;;;5074609;28;20447;-89
2021/07/26 08:52:19;;;;;;;20.90;19.10;;;30.30;99.90;;;;;;5074320;28;20483;-89
2021/07/26 08:54:48;;;;;;;19.73;18.13;;;30.00;99.90;;;;;;5074739;28;20508;-88
2021/07/26 08:57:15;;;;;;;21.90;19.87;;;29.90;99.90;;;;;;5074250;28;20506;-88
2021/07/26 08:59:44;;;;;;;22.00;20.27;;;30.00;99.90;;;;;;5074311;28;20452;-88
2021/07/26 09:02:11;;;;;;;20.97;19.20;;;30.20;99.90;;;;;;5074435;28;20879;-88
2021/07/26 09:04:38;;;;;;;21.87;20.00;;;30.40;99.90;;;;;;5074462;28;20451;-89
2021/07/26 09:07:06;;;;;;;20.20;18.50;;;30.60;99.90;;;;;;5073660;28;20452;-87
2021/07/26 09:09:42;;;;;;;21.40;19.50;;;30.70;99.90;;;;;;5074330;28;20538;-88
2021/07/26 09:12:09;;;;;;;22.20;20.40;;;30.60;99.90;;;;;;5082679;28;20470;-87
2021/07/26 09:14:37;;;;;;;22.27;20.17;;;30.60;99.90;;;;;;5094645;28;20508;-86
2021/07/26 09:17:07;;;;;;;19.27;17.60;;;30.60;99.90;;;;;;5094392;28;20486;-88
2021/07/26 09:20:04;;;;;;;18.70;17.30;;;30.70;99.90;;;;;;5094813;28;20461;-88
2021/07/26 09:22:33;;;;;;;18.27;16.77;;;30.60;99.90;;;;;;5031797;28;20449;-88
2021/07/26 09:25:21;;;;;;;16.13;14.90;;;30.60;99.90;;;;;;5080628;28;20474;-89
2021/07/26 09:28:03;;;;;;;16.23;14.93;;;30.60;99.90;;;;;;5094402;28;20971;-89
2021/07/26 09:30:33;;;;;;;11.90;11.10;;;30.70;99.90;;;;;;5094707;28;20450;-89
2021/07/26 09:33:02;;;;;;;12.50;11.40;;;30.60;99.90;;;;;;5094032;28;21091;-88
2021/07/26 09:35:29;;;;;;;12.20;11.30;;;30.50;99.90;;;;;;5094379;28;20458;-89
2021/07/26 09:38:01;;;;;;;12.93;11.37;;;30.30;99.90;;;;;;5094248;28;20453;-88
2021/07/26 09:40:33;;;;;;;12.73;11.50;;;30.20;99.90;;;;;;5094180;28;20503;-88
2021/07/26 09:43:17;;;;;;;15.00;13.27;;;30.10;99.90;;;;;;5094115;28;20454;-88
2021/07/26 09:45:44;;;;;;;14.37;13.27;;;29.90;99.90;;;;;;5093844;28;20828;-89
2021/07/26 09:48:14;;;;;;;13.60;12.50;;;29.80;99.90;;;;;;5093792;28;21014;-88
2021/07/26 09:50:44;;;;;;;12.50;11.40;;;29.70;99.90;;;;;;5093777;28;20446;-90
2021/07/26 09:53:14;;;;;;;14.73;13.33;;;29.60;99.90;;;;;;5093513;28;20517;-89
2021/07/26 09:55:45;;;;;;;11.87;10.97;;;29.40;99.90;;;;;;5093467;28;20497;-90
2021/07/26 09:58:13;;;;;;;13.40;12.30;;;29.30;99.90;;;;;;5094498;28;20525;-90
2021/07/26 10:00:41;;;;;;;12.33;11.17;;;29.20;99.90;;;;;;5093942;28;20474;-90
2021/07/26 10:03:11;;;;;;;11.40;10.50;;;29.10;99.90;;;;;;5093885;28;20482;-89
2021/07/26 10:05:41;;;;;;;13.00;12.00;;;29.00;99.90;;;;;;5093808;28;20474;-89
2021/07/26 10:08:08;;;;;;;13.60;12.40;;;29.00;99.90;;;;;;5093648;28;20450;-89
2021/07/26 10:10:37;;;;;;;13.50;12.30;;;28.90;99.90;;;;;;5093614;28;20434;-90
2021/07/26 10:13:05;;;;;;;12.90;12.00;;;28.90;99.90;;;;;;5077050;28;20507;-89
2021/07/26 10:15:32;;;;;;;15.80;14.40;;;28.90;99.90;;;;;;5073517;28;20451;-88
2021/07/26 10:17:59;;;;;;;14.60;13.40;;;28.90;99.90;;;;;;5072306;28;20508;-89
2021/07/26 10:20:29;;;;;;;14.13;13.00;;;28.80;99.90;;;;;;5073237;28;20454;-89
2021/07/26 10:23:00;;;;;;;15.53;14.17;;;28.80;99.90;;;;;;5073034;28;20534;-89
2021/07/26 10:25:32;;;;;;;15.33;13.93;;;28.90;99.90;;;;;;5073288;28;20447;-89
2021/07/26 10:28:01;;;;;;;14.00;12.90;;;28.90;99.90;;;;;;5073127;28;20454;-89
2021/07/26 10:30:34;;;;;;;15.67;14.07;;;29.00;99.90;;;;;;5072919;28;20493;-89
2021/07/26 10:33:01;;;;;;;13.80;12.53;;;29.10;99.90;;;;;;5072708;28;20912;-90
2021/07/26 10:35:39;;;;;;;14.73;13.33;;;29.20;99.90;;;;;;5072859;28;20455;-89
2021/07/26 10:38:09;;;;;;;13.20;12.10;;;29.20;99.90;;;;;;5072811;28;20451;-89
2021/07/26 10:40:43;;;;;;;10.37;9.57;;;29.20;99.90;;;;;;5072920;28;20447;-90
2021/07/26 10:43:15;;;;;;;8.93;8.20;;;29.20;99.90;;;;;;5072921;28;20500;-90
2021/07/26 10:46:00;;;;;;;9.20;8.40;;;29.20;99.90;;;;;;5073008;28;20804;-89
2021/07/26 10:48:48;;;;;;;8.83;8.23;;;29.10;99.90;;;;;;5072645;28;20949;-87
2021/07/26 10:51:36;;;;;;;9.20;8.50;;;29.00;99.90;;;;;;5072755;28;20451;-88
2021/07/26 10:54:05;;;;;;;10.07;9.27;;;28.90;99.90;;;;;;5072530;28;20890;-87
2021/07/26 10:57:05;;;;;;;8.73;8.13;;;29.00;99.90;;;;;;5072337;28;20724;-88
2021/07/26 10:59:52;;;;;;;8.50;7.90;;;28.90;99.90;;;;;;5072737;28;20881;-88
2021/07/26 11:02:35;;;;;;;9.40;8.60;;;29.00;99.90;;;;;;5072694;28;20866;-88
2021/07/26 11:05:32;;;;;;;8.60;7.90;;;29.00;99.90;;;;;;5072808;28;20452;-88
2021/07/26 11:08:26;;;;;;;9.27;8.53;;;28.90;99.90;;;;;;5072596;28;20451;-87
2021/07/26 11:10:57;;;;;;;9.50;8.50;;;28.90;99.90;;;;;;5072507;28;20530;-86
2021/07/26 11:13:26;;;;;;;6.90;6.40;;;28.90;99.90;;;;;;5091624;28;20870;-89
2021/07/26 11:15:54;;;;;;;7.67;7.07;;;29.00;99.90;;;;;;5092747;28;20446;-89
2021/07/26 11:18:24;;;;;;;8.03;7.33;;;29.00;99.90;;;;;;5092550;28;20454;-89
2021/07/26 11:21:05;;;;;;;6.00;5.60;;;29.00;99.90;;;;;;5092842;28;20461;-90
2021/07/26 11:23:50;;;;;;;7.80;7.20;;;29.10;99.90;;;;;;5092531;28;21004;-89
2021/07/26 11:26:26;;;;;;;8.33;7.73;;;29.10;99.90;;;;;;5092826;28;20446;-88
2021/07/26 11:28:54;;;;;;;7.63;7.10;;;29.20;99.90;;;;;;5093705;28;20442;-88
2021/07/26 11:31:23;;;;;;;8.53;7.87;;;29.10;99.90;;;;;;5096471;28;20443;-90
2021/07/26 11:33:51;;;;;;;8.50;7.90;;;29.00;99.90;;;;;;5096089;28;20612;-89
2021/07/26 11:36:17;;;;;;;9.77;8.80;;;29.00;99.90;;;;;;5096221;28;20450;-90
2021/07/26 11:38:57;;;;;;;9.20;8.43;;;29.10;99.90;;;;;;5096150;28;20478;-89
2021/07/26 11:41:26;;;;;;;9.10;8.10;;;29.40;99.90;;;;;;5096209;28;20457;-90
2021/07/26 11:43:53;;;;;;;10.03;9.23;;;29.50;99.90;;;;;;5096218;28;20454;-89
2021/07/26 11:46:19;;;;;;;9.27;8.47;;;29.50;99.90;;;;;;5096253;28;20929;-89
2021/07/26 11:48:46;;;;;;;8.70;7.93;;;29.50;99.90;;;;;;5096125;28;20450;-88
2021/07/26 11:51:40;;;;;;;8.73;7.93;;;29.60;99.90;;;;;;5096268;28;20491;-90
2021/07/26 11:54:09;;;;;;;8.80;8.10;;;29.80;99.90;;;;;;5059774;28;20795;-90
2021/07/26 11:56:37;;;;;;;8.13;7.40;;;30.10;99.90;;;;;;5095922;28;20830;-89
2021/07/26 11:59:15;;;;;;;8.63;7.93;;;30.50;99.90;;;;;;5096151;28;20507;-90
2021/07/26 12:01:46;;;;;;;8.20;7.60;;;30.90;99.90;;;;;;5096233;28;20450;-88
2021/07/26 12:04:13;;;;;;;9.20;7.90;;;31.10;99.90;;;;;;5095841;28;20450;-89
2021/07/26 12:06:54;;;;;;;8.17;7.47;;;31.30;99.90;;;;;;5096070;28;20459;-90
2021/07/26 12:09:21;;;;;;;9.77;9.07;;;31.50;99.90;;;;;;5095736;28;20461;-90
2021/07/26 12:11:53;;;;;;;7.40;6.80;;;31.80;99.90;;;;;;5090106;28;20501;-89
2021/07/26 12:14:31;;;;;;;7.93;7.20;;;31.90;99.90;;;;;;5077087;28;20457;-91
2021/07/26 12:17:02;;;;;;;7.17;6.70;;;32.20;99.90;;;;;;5079289;28;20477;-91
2021/07/26 12:19:30;;;;;;;6.90;6.40;;;32.40;99.90;;;;;;5077570;28;20455;-89
2021/07/26 12:21:59;;;;;;;6.73;6.23;;;32.50;99.90;;;;;;5076211;28;20543;-89
2021/07/26 12:24:49;;;;;;;7.17;6.57;;;32.60;99.90;;;;;;5075962;28;20934;-90
2021/07/26 12:27:28;;;;;;;6.60;6.00;;;32.70;99.90;;;;;;5075877;28;20500;-90
2021/07/26 12:30:00;;;;;;;5.83;5.50;;;32.80;99.90;;;;;;5076072;28;20466;-91
2021/07/26 12:32:27;;;;;;;6.40;5.97;;;32.70;99.90;;;;;;5075844;28;20475;-90
2021/07/26 12:35:32;;;;;;;6.30;5.90;;;32.70;99.90;;;;;;5075417;28;20447;-90
2021/07/26 12:38:20;;;;;;;7.20;6.60;;;32.70;99.90;;;;;;5075319;28;20958;-90
2021/07/26 12:41:03;;;;;;;6.43;6.03;;;32.90;99.90;;;;;;5068006;28;20451;-90